Main page
METAR-TAF:

METAR-TAF

Airports :

Piacenza Air Base

Piacenza, Italy

latitude: 44-55N, longitude: 009-44E, elevation: 134 m

Current weather observation

The report was made 4 hours and 59 minutes ago, at 17:55 UTC
Wind 1 kt from the South/Southwest
Temperature 11°C
Humidity 100%
Pressure 1026 hPa
Visibility: 1500 m
Broken clouds at a height of 700 ft
Scattered clouds at a height of 2000 ft
mist

METAR: LIMS 141755Z 21001KT 1500 BR BKN007 SCT020 11/11 Q1026 RMK OVC VIS MIN 1500 WIND THR30 23002KT AMB

Time: 23:54 (22:54 UTC)


TAF: missing

Weather observations and forecasts of more than 4000 airports (METAR and TAF reports).

The available stations are represented by yellow and red dots on the map.

Hover mouse over dot to see the name of the station.

Then click to see weather observations and forecasts.

To change the map : click on the green buttons with a black cross to zoom in, on the green button with a dash to zoom out, or on the green arrows for adjacent maps.


METAR-TAF: